createdAt,value
2019-04-25T00:00:03.242Z,714.0000
2019-04-25T00:00:13.256Z,735.0000
2019-04-25T00:00:28.206Z,745.0000
2019-04-25T00:00:32.247Z,738.0000
2019-04-25T00:00:43.124Z,738.0000
2019-04-25T00:00:53.262Z,727.0000
2019-04-25T00:01:03.429Z,729.0000
2019-04-25T00:01:13.246Z,732.0000
2019-04-25T00:01:23.236Z,721.0000
2019-04-25T00:01:33.234Z,719.0000
2019-04-25T00:01:43.975Z,722.0000
2019-04-25T00:01:52.359Z,714.0000
2019-04-25T00:02:02.226Z,719.0000
2019-04-25T00:02:12.247Z,721.0000
2019-04-25T00:02:22.207Z,713.0000
2019-04-25T00:02:32.539Z,721.0000
2019-04-25T00:02:42.708Z,717.0000
2019-04-25T00:02:53.289Z,707.0000
2019-04-25T00:03:03.264Z,707.0000
2019-04-25T00:03:13.234Z,714.0000
2019-04-25T00:03:23.241Z,710.0000
2019-04-25T00:03:33.234Z,689.0000
2019-04-25T00:03:43.665Z,696.0000
2019-04-25T00:03:54.246Z,710.0000
2019-04-25T00:04:02.024Z,702.0000
2019-04-25T00:04:12.271Z,719.0000
2019-04-25T00:04:22.266Z,707.0000
2019-04-25T00:04:32.257Z,712.0000
2019-04-25T00:04:42.643Z,707.0000
2019-04-25T00:04:53.261Z,704.0000
2019-04-25T00:05:03.396Z,699.0000
2019-04-25T00:05:13.252Z,713.0000
2019-04-25T00:05:22.245Z,705.0000
2019-04-25T00:05:32.232Z,702.0000
2019-04-25T00:05:42.778Z,704.0000
2019-04-25T00:05:53.253Z,712.0000
2019-04-25T00:06:03.248Z,729.0000
2019-04-25T00:06:12.260Z,735.0000
2019-04-25T00:06:23.066Z,709.0000
2019-04-25T00:06:33.266Z,711.0000
2019-04-25T00:06:43.992Z,724.0000
2019-04-25T00:06:52.278Z,707.0000
2019-04-25T00:07:02.334Z,701.0000
2019-04-25T00:07:12.268Z,702.0000
2019-04-25T00:07:22.252Z,712.0000
2019-04-25T00:07:32.849Z,720.0000
2019-04-25T00:07:43.884Z,717.0000
2019-04-25T00:07:54.247Z,738.0000
2019-04-25T00:08:04.272Z,726.0000
2019-04-25T00:08:11.584Z,725.0000
2019-04-25T00:08:24.251Z,717.0000
2019-04-25T00:08:34.263Z,719.0000
2019-04-25T00:08:42.719Z,720.0000
2019-04-25T00:08:53.456Z,697.0000
2019-04-25T00:09:03.221Z,702.0000
2019-04-25T00:09:13.259Z,697.0000
2019-04-25T00:09:23.248Z,710.0000
2019-04-25T00:09:33.237Z,696.0000
2019-04-25T00:09:44.056Z,678.0000
2019-04-25T00:09:51.705Z,683.0000
2019-04-25T00:10:01.631Z,672.0000
2019-04-25T00:10:11.738Z,697.0000
2019-04-25T00:10:23.257Z,689.0000
2019-04-25T00:10:33.248Z,691.0000
2019-04-25T00:10:43.860Z,684.0000
2019-04-25T00:10:54.247Z,692.0000
2019-04-25T00:11:01.699Z,684.0000
2019-04-25T00:11:12.240Z,680.0000
2019-04-25T00:11:21.560Z,698.0000
2019-04-25T00:11:33.267Z,685.0000
2019-04-25T00:11:46.627Z,675.0000
2019-04-25T00:11:52.302Z,693.0000
2019-04-25T00:12:02.342Z,703.0000
2019-04-25T00:12:12.227Z,680.0000
2019-04-25T00:12:22.391Z,693.0000
2019-04-25T00:12:32.243Z,694.0000
2019-04-25T00:12:43.218Z,686.0000
2019-04-25T00:12:53.239Z,674.0000
2019-04-25T00:13:03.601Z,673.0000
2019-04-25T00:13:14.239Z,685.0000
2019-04-25T00:13:21.807Z,678.0000
2019-04-25T00:13:32.202Z,683.0000
2019-04-25T00:13:43.244Z,686.0000
2019-04-25T00:13:51.614Z,685.0000
2019-04-25T00:14:01.613Z,684.0000
2019-04-25T00:14:14.200Z,694.0000
2019-04-25T00:14:22.573Z,684.0000
2019-04-25T00:14:32.213Z,680.0000
2019-04-25T00:14:42.498Z,669.0000
2019-04-25T00:14:52.201Z,682.0000
2019-04-25T00:15:02.236Z,677.0000
2019-04-25T00:15:12.251Z,680.0000
2019-04-25T00:15:22.421Z,673.0000
2019-04-25T00:15:32.243Z,672.0000
2019-04-25T00:15:44.610Z,657.0000
2019-04-25T00:15:52.235Z,668.0000
2019-04-25T00:16:02.209Z,678.0000
2019-04-25T00:16:12.203Z,678.0000
2019-04-25T00:16:22.237Z,686.0000
2019-04-25T00:16:32.259Z,682.0000
2019-04-25T00:16:43.086Z,677.0000
2019-04-25T00:16:51.839Z,678.0000
2019-04-25T00:17:02.233Z,669.0000
2019-04-25T00:17:12.227Z,673.0000
2019-04-25T00:17:22.245Z,663.0000
2019-04-25T00:17:32.248Z,668.0000
2019-04-25T00:17:43.263Z,655.0000
2019-04-25T00:17:53.239Z,670.0000
2019-04-25T00:18:03.240Z,660.0000
2019-04-25T00:18:13.245Z,675.0000
2019-04-25T00:18:23.403Z,680.0000
2019-04-25T00:18:33.225Z,670.0000
2019-04-25T00:18:43.235Z,669.0000
2019-04-25T00:18:53.246Z,675.0000
2019-04-25T00:19:03.245Z,673.0000
2019-04-25T00:19:13.244Z,672.0000
2019-04-25T00:19:23.221Z,674.0000
2019-04-25T00:19:33.337Z,669.0000
2019-04-25T00:19:43.355Z,666.0000
2019-04-25T00:19:53.256Z,659.0000
2019-04-25T00:20:03.245Z,652.0000
2019-04-25T00:20:12.211Z,666.0000
2019-04-25T00:20:22.232Z,648.0000
2019-04-25T00:20:32.246Z,652.0000
2019-04-25T00:20:43.526Z,659.0000
2019-04-25T00:20:53.226Z,653.0000
2019-04-25T00:21:03.232Z,670.0000
2019-04-25T00:21:13.247Z,666.0000
2019-04-25T00:21:23.246Z,666.0000
2019-04-25T00:21:33.884Z,661.0000
2019-04-25T00:21:44.578Z,651.0000
2019-04-25T00:21:51.667Z,666.0000
2019-04-25T00:22:02.328Z,665.0000
2019-04-25T00:22:12.212Z,650.0000
2019-04-25T00:22:22.250Z,667.0000
2019-04-25T00:22:32.242Z,652.0000
2019-04-25T00:22:42.832Z,649.0000
2019-04-25T00:22:53.428Z,658.0000
2019-04-25T00:23:03.253Z,663.0000
2019-04-25T00:23:13.247Z,661.0000
2019-04-25T00:23:23.239Z,659.0000
2019-04-25T00:23:39.376Z,650.0000
2019-04-25T00:23:43.774Z,655.0000
2019-04-25T00:23:54.244Z,657.0000
2019-04-25T00:24:04.254Z,659.0000
2019-04-25T00:24:12.200Z,653.0000
2019-04-25T00:24:24.236Z,652.0000
2019-04-25T00:24:32.073Z,647.0000
2019-04-25T00:24:43.283Z,648.0000
2019-04-25T00:24:54.202Z,643.0000
2019-04-25T00:25:14.371Z,653.0000
2019-04-25T00:25:17.564Z,655.0000
2019-04-25T00:25:22.239Z,645.0000
2019-04-25T00:25:32.257Z,652.0000
2019-04-25T00:25:45.409Z,667.0000
2019-04-25T00:25:53.238Z,691.0000
2019-04-25T00:26:03.241Z,657.0000
2019-04-25T00:26:13.237Z,655.0000
2019-04-25T00:26:23.217Z,666.0000
2019-04-25T00:26:33.254Z,638.0000
2019-04-25T00:26:44.413Z,647.0000
2019-04-25T00:26:53.461Z,672.0000
2019-04-25T00:27:02.301Z,690.0000
2019-04-25T00:27:12.247Z,698.0000
2019-04-25T00:27:23.717Z,687.0000
2019-04-25T00:27:32.015Z,659.0000
2019-04-25T00:27:43.586Z,657.0000
2019-04-25T00:27:51.655Z,666.0000
2019-04-25T00:28:02.226Z,657.0000
2019-04-25T00:28:12.246Z,656.0000
2019-04-25T00:28:22.250Z,664.0000
2019-04-25T00:28:32.237Z,650.0000
2019-04-25T00:28:43.580Z,663.0000
2019-04-25T00:28:52.402Z,649.0000
2019-04-25T00:29:03.999Z,659.0000
2019-04-25T00:29:12.918Z,658.0000
2019-04-25T00:29:23.272Z,649.0000
2019-04-25T00:29:33.246Z,655.0000
2019-04-25T00:29:44.521Z,662.0000
2019-04-25T00:29:52.936Z,659.0000
2019-04-25T00:30:03.232Z,673.0000
2019-04-25T00:30:13.240Z,670.0000
2019-04-25T00:30:23.223Z,677.0000
2019-04-25T00:30:33.265Z,657.0000
2019-04-25T00:30:44.419Z,657.0000
2019-04-25T00:30:52.253Z,666.0000
2019-04-25T00:31:03.239Z,662.0000
2019-04-25T00:31:13.241Z,660.0000
2019-04-25T00:31:24.771Z,664.0000
2019-04-25T00:31:33.232Z,655.0000
2019-04-25T00:31:43.779Z,670.0000
2019-04-25T00:31:54.241Z,657.0000
2019-04-25T00:32:01.696Z,664.0000
2019-04-25T00:32:13.263Z,662.0000
2019-04-25T00:32:23.246Z,671.0000
2019-04-25T00:32:33.272Z,657.0000
2019-04-25T00:32:44.167Z,666.0000
2019-04-25T00:32:51.241Z,662.0000
2019-04-25T00:33:02.050Z,662.0000
2019-04-25T00:33:12.238Z,650.0000
2019-04-25T00:33:22.284Z,659.0000
2019-04-25T00:33:32.253Z,644.0000
2019-04-25T00:33:44.178Z,658.0000
2019-04-25T00:33:53.294Z,649.0000
2019-04-25T00:34:03.248Z,646.0000
2019-04-25T00:34:13.246Z,637.0000
2019-04-25T00:34:23.250Z,640.0000
2019-04-25T00:34:33.708Z,629.0000
2019-04-25T00:34:44.491Z,629.0000
2019-04-25T00:34:52.847Z,640.0000
2019-04-25T00:35:02.221Z,640.0000
2019-04-25T00:35:12.236Z,638.0000
2019-04-25T00:35:22.239Z,650.0000
2019-04-25T00:35:32.239Z,647.0000
2019-04-25T00:35:43.487Z,648.0000
2019-04-25T00:35:51.739Z,648.0000
2019-04-25T00:36:03.864Z,659.0000
2019-04-25T00:36:14.228Z,650.0000
2019-04-25T00:36:21.841Z,652.0000
2019-04-25T00:36:32.236Z,643.0000
2019-04-25T00:36:43.480Z,637.0000
2019-04-25T00:36:51.564Z,642.0000
2019-04-25T00:37:04.272Z,620.0000
2019-04-25T00:37:13.739Z,619.0000
2019-04-25T00:37:22.561Z,632.0000
2019-04-25T00:37:32.388Z,628.0000
2019-04-25T00:37:44.278Z,639.0000
2019-04-25T00:37:52.554Z,623.0000
2019-04-25T00:38:02.464Z,635.0000
2019-04-25T00:38:12.195Z,635.0000
2019-04-25T00:38:22.317Z,649.0000
2019-04-25T00:38:32.246Z,661.0000
2019-04-25T00:38:46.222Z,647.0000
2019-04-25T00:38:52.282Z,630.0000
2019-04-25T00:39:03.237Z,639.0000
2019-04-25T00:39:13.215Z,653.0000
2019-04-25T00:39:23.235Z,660.0000
2019-04-25T00:39:33.201Z,661.0000
2019-04-25T00:39:44.740Z,661.0000
2019-04-25T00:39:52.242Z,669.0000
2019-04-25T00:40:02.281Z,640.0000
2019-04-25T00:40:13.477Z,639.0000
2019-04-25T00:40:23.257Z,647.0000
2019-04-25T00:40:33.247Z,655.0000
2019-04-25T00:40:43.944Z,669.0000
2019-04-25T00:40:52.436Z,651.0000
2019-04-25T00:41:03.225Z,637.0000
2019-04-25T00:41:13.239Z,641.0000
2019-04-25T00:41:23.252Z,652.0000
2019-04-25T00:41:34.193Z,647.0000
2019-04-25T00:41:44.059Z,647.0000
2019-04-25T00:41:52.227Z,658.0000
2019-04-25T00:42:02.505Z,632.0000
2019-04-25T00:42:12.319Z,630.0000
2019-04-25T00:42:23.225Z,646.0000
2019-04-25T00:42:33.244Z,637.0000
2019-04-25T00:42:44.682Z,625.0000
2019-04-25T00:42:53.699Z,635.0000
2019-04-25T00:43:04.232Z,638.0000
2019-04-25T00:43:11.478Z,637.0000
2019-04-25T00:43:21.527Z,627.0000
2019-04-25T00:43:33.220Z,627.0000
2019-04-25T00:43:44.044Z,635.0000
2019-04-25T00:43:52.523Z,635.0000
2019-04-25T00:44:02.450Z,648.0000
2019-04-25T00:44:12.130Z,650.0000
2019-04-25T00:44:22.248Z,637.0000
2019-04-25T00:44:32.247Z,652.0000
2019-04-25T00:44:44.553Z,652.0000
2019-04-25T00:44:52.514Z,639.0000
2019-04-25T00:45:02.443Z,639.0000
2019-04-25T00:45:13.986Z,638.0000
2019-04-25T00:45:22.329Z,639.0000
2019-04-25T00:45:32.228Z,643.0000
2019-04-25T00:45:43.587Z,651.0000
2019-04-25T00:45:54.221Z,660.0000
2019-04-25T00:46:01.593Z,668.0000
2019-04-25T00:46:12.248Z,657.0000
2019-04-25T00:46:22.615Z,650.0000
2019-04-25T00:46:32.318Z,643.0000
2019-04-25T00:46:46.373Z,639.0000
2019-04-25T00:46:54.309Z,636.0000
2019-04-25T00:47:03.235Z,631.0000
2019-04-25T00:47:12.247Z,639.0000
2019-04-25T00:47:22.261Z,658.0000
2019-04-25T00:47:32.248Z,639.0000
2019-04-25T00:47:43.506Z,655.0000
2019-04-25T00:47:54.246Z,656.0000
2019-04-25T00:48:04.402Z,649.0000
2019-04-25T00:48:14.236Z,647.0000
2019-04-25T00:48:22.314Z,654.0000
2019-04-25T00:48:32.236Z,624.0000
2019-04-25T00:48:43.154Z,643.0000
2019-04-25T00:48:53.257Z,634.0000
2019-04-25T00:49:03.233Z,637.0000
2019-04-25T00:49:13.247Z,637.0000
2019-04-25T00:49:23.695Z,646.0000
2019-04-25T00:49:33.232Z,664.0000
2019-04-25T00:49:44.859Z,655.0000
2019-04-25T00:49:53.186Z,662.0000
2019-04-25T00:50:03.232Z,648.0000
2019-04-25T00:50:13.242Z,649.0000
2019-04-25T00:50:23.247Z,667.0000
2019-04-25T00:50:33.224Z,673.0000
2019-04-25T00:50:44.363Z,668.0000
2019-04-25T00:50:54.644Z,654.0000
2019-04-25T00:51:04.251Z,661.0000
2019-04-25T00:51:13.251Z,664.0000
2019-04-25T00:51:23.254Z,666.0000
2019-04-25T00:51:33.274Z,663.0000
2019-04-25T00:51:43.764Z,675.0000
2019-04-25T00:51:52.356Z,659.0000
2019-04-25T00:52:03.273Z,652.0000
2019-04-25T00:52:13.234Z,657.0000
2019-04-25T00:52:23.247Z,673.0000
2019-04-25T00:52:33.232Z,671.0000
2019-04-25T00:52:43.896Z,673.0000
2019-04-25T00:52:53.602Z,658.0000
2019-04-25T00:53:03.244Z,658.0000
2019-04-25T00:53:13.212Z,658.0000
2019-04-25T00:53:23.224Z,662.0000
2019-04-25T00:53:33.265Z,655.0000
2019-04-25T00:53:43.719Z,645.0000
2019-04-25T00:53:53.695Z,653.0000
2019-04-25T00:54:02.429Z,652.0000
2019-04-25T00:54:12.253Z,653.0000
2019-04-25T00:54:22.705Z,659.0000
2019-04-25T00:54:33.223Z,662.0000
2019-04-25T00:54:44.179Z,668.0000
2019-04-25T00:54:52.630Z,666.0000
2019-04-25T00:55:03.236Z,662.0000
2019-04-25T00:55:25.931Z,658.0000
2019-04-25T00:55:28.601Z,665.0000
2019-04-25T00:55:31.499Z,661.0000
2019-04-25T00:55:44.371Z,664.0000
2019-04-25T00:55:54.247Z,651.0000
2019-04-25T00:56:01.544Z,658.0000
2019-04-25T00:56:14.236Z,657.0000
2019-04-25T00:56:22.368Z,663.0000
2019-04-25T00:56:34.247Z,649.0000
2019-04-25T00:56:43.225Z,641.0000
2019-04-25T00:56:52.817Z,643.0000
2019-04-25T00:57:02.169Z,642.0000
2019-04-25T00:57:12.259Z,645.0000
2019-04-25T00:57:22.248Z,632.0000
2019-04-25T00:57:32.230Z,630.0000
2019-04-25T00:57:43.525Z,627.0000
2019-04-25T00:57:52.562Z,627.0000
2019-04-25T00:58:03.367Z,623.0000
2019-04-25T00:58:13.229Z,637.0000
2019-04-25T00:58:23.223Z,640.0000
2019-04-25T00:58:33.256Z,643.0000
2019-04-25T00:58:44.063Z,646.0000
2019-04-25T00:58:53.146Z,669.0000
2019-04-25T00:59:01.945Z,646.0000
2019-04-25T00:59:13.986Z,651.0000
2019-04-25T00:59:22.162Z,655.0000
2019-04-25T00:59:32.214Z,652.0000
2019-04-25T00:59:42.974Z,657.0000
2019-04-25T00:59:52.835Z,655.0000
2019-04-25T01:00:03.234Z,625.0000
2019-04-25T01:00:12.239Z,641.0000
2019-04-25T01:00:22.267Z,650.0000
2019-04-25T01:00:32.688Z,660.0000
2019-04-25T01:00:43.291Z,646.0000
2019-04-25T01:00:54.224Z,640.0000
2019-04-25T01:01:01.997Z,659.0000
2019-04-25T01:01:12.252Z,647.0000
2019-04-25T01:01:22.206Z,646.0000
2019-04-25T01:01:32.189Z,646.0000
2019-04-25T01:01:44.239Z,631.0000
2019-04-25T01:01:53.266Z,624.0000
2019-04-25T01:02:04.224Z,629.0000
2019-04-25T01:02:11.514Z,625.0000
2019-04-25T01:02:21.531Z,627.0000
2019-04-25T01:02:34.237Z,643.0000
2019-04-25T01:02:45.252Z,648.0000
2019-04-25T01:02:53.427Z,637.0000
2019-04-25T01:03:01.600Z,650.0000
2019-04-25T01:03:13.277Z,652.0000
2019-04-25T01:03:23.246Z,664.0000
2019-04-25T01:03:33.245Z,668.0000
2019-04-25T01:03:44.124Z,653.0000
2019-04-25T01:03:53.319Z,666.0000
2019-04-25T01:04:03.247Z,669.0000
2019-04-25T01:04:13.243Z,657.0000
2019-04-25T01:04:22.251Z,678.0000
2019-04-25T01:04:33.585Z,668.0000
2019-04-25T01:04:43.879Z,678.0000
2019-04-25T01:04:52.057Z,661.0000
2019-04-25T01:05:03.245Z,671.0000
2019-04-25T01:05:13.249Z,648.0000
2019-04-25T01:05:23.242Z,670.0000
2019-04-25T01:05:33.245Z,665.0000
2019-04-25T01:05:44.319Z,674.0000
2019-04-25T01:05:53.110Z,680.0000
2019-04-25T01:06:03.829Z,674.0000
2019-04-25T01:06:12.042Z,682.0000
2019-04-25T01:06:22.239Z,657.0000
2019-04-25T01:06:32.247Z,663.0000
2019-04-25T01:06:42.207Z,660.0000
2019-04-25T01:06:52.026Z,642.0000
2019-04-25T01:07:03.256Z,657.0000
2019-04-25T01:07:13.235Z,655.0000
2019-04-25T01:07:22.474Z,654.0000
2019-04-25T01:07:34.373Z,648.0000
2019-04-25T01:07:44.384Z,649.0000
2019-04-25T01:07:54.404Z,656.0000
2019-04-25T01:08:02.128Z,643.0000
2019-04-25T01:08:12.047Z,650.0000
2019-04-25T01:08:24.256Z,639.0000
2019-04-25T01:08:31.982Z,647.0000
2019-04-25T01:08:44.295Z,642.0000
2019-04-25T01:08:55.832Z,650.0000
2019-04-25T01:09:03.258Z,651.0000
2019-04-25T01:09:13.247Z,652.0000
2019-04-25T01:09:23.251Z,643.0000
2019-04-25T01:09:33.257Z,645.0000
2019-04-25T01:09:43.487Z,641.0000
2019-04-25T01:09:54.572Z,643.0000
2019-04-25T01:10:02.471Z,650.0000
2019-04-25T01:10:12.245Z,645.0000
2019-04-25T01:10:23.114Z,637.0000
2019-04-25T01:10:33.233Z,652.0000
2019-04-25T01:10:44.298Z,648.0000
2019-04-25T01:10:54.271Z,659.0000
2019-04-25T01:11:01.780Z,647.0000
2019-04-25T01:11:12.238Z,647.0000
2019-04-25T01:11:22.256Z,655.0000
2019-04-25T01:11:32.216Z,660.0000
2019-04-25T01:11:42.475Z,660.0000
2019-04-25T01:11:53.128Z,664.0000
2019-04-25T01:12:04.099Z,662.0000
2019-04-25T01:12:14.247Z,653.0000
2019-04-25T01:12:21.642Z,660.0000
2019-04-25T01:12:32.235Z,657.0000
2019-04-25T01:12:42.278Z,662.0000
2019-04-25T01:12:53.142Z,678.0000
2019-04-25T01:13:03.236Z,677.0000
2019-04-25T01:13:13.223Z,673.0000
2019-04-25T01:13:23.240Z,677.0000
2019-04-25T01:13:33.267Z,682.0000
2019-04-25T01:13:44.561Z,690.0000
2019-04-25T01:13:54.436Z,691.0000
2019-04-25T01:14:02.153Z,686.0000
2019-04-25T01:14:11.929Z,694.0000
2019-04-25T01:14:22.257Z,696.0000
2019-04-25T01:14:33.746Z,687.0000
2019-04-25T01:14:44.201Z,679.0000
2019-04-25T01:14:52.879Z,673.0000
2019-04-25T01:15:03.248Z,683.0000
2019-04-25T01:15:13.257Z,657.0000
2019-04-25T01:15:23.252Z,666.0000
2019-04-25T01:15:33.236Z,678.0000
2019-04-25T01:15:43.219Z,654.0000
2019-04-25T01:15:53.724Z,639.0000
2019-04-25T01:16:04.139Z,639.0000
2019-04-25T01:16:12.010Z,641.0000
2019-04-25T01:16:22.243Z,656.0000
2019-04-25T01:16:32.271Z,652.0000
2019-04-25T01:16:42.236Z,639.0000
2019-04-25T01:16:53.006Z,645.0000
2019-04-25T01:17:01.737Z,642.0000
2019-04-25T01:17:12.258Z,656.0000
2019-04-25T01:17:22.963Z,634.0000
2019-04-25T01:17:33.248Z,640.0000
2019-04-25T01:17:43.247Z,632.0000
2019-04-25T01:17:53.453Z,620.0000
2019-04-25T01:18:03.278Z,633.0000
2019-04-25T01:18:13.253Z,648.0000
2019-04-25T01:18:23.289Z,655.0000
2019-04-25T01:18:33.707Z,644.0000
2019-04-25T01:18:43.672Z,637.0000
2019-04-25T01:18:54.565Z,646.0000
2019-04-25T01:19:03.539Z,646.0000
2019-04-25T01:19:13.512Z,646.0000
2019-04-25T01:19:23.521Z,661.0000
2019-04-25T01:19:34.450Z,678.0000
2019-04-25T01:19:41.248Z,665.0000
2019-04-25T01:19:51.246Z,664.0000
2019-04-25T01:20:01.258Z,657.0000
2019-04-25T01:20:11.243Z,655.0000
2019-04-25T01:20:24.238Z,652.0000
2019-04-25T01:20:34.510Z,657.0000
2019-04-25T01:20:45.433Z,651.0000
2019-04-25T01:20:53.626Z,656.0000
2019-04-25T01:21:04.510Z,661.0000
2019-04-25T01:21:14.246Z,671.0000
2019-04-25T01:21:25.300Z,669.0000
2019-04-25T01:21:33.930Z,671.0000
2019-04-25T01:21:45.512Z,671.0000
2019-04-25T01:21:54.152Z,672.0000
2019-04-25T01:22:03.764Z,664.0000
2019-04-25T01:22:11.256Z,658.0000
2019-04-25T01:22:21.255Z,645.0000
2019-04-25T01:22:31.258Z,646.0000
2019-04-25T01:22:41.283Z,647.0000
2019-04-25T01:22:56.952Z,662.0000
2019-04-25T01:23:01.243Z,653.0000
2019-04-25T01:23:14.244Z,654.0000
2019-04-25T01:23:24.252Z,664.0000
2019-04-25T01:23:31.240Z,657.0000
2019-04-25T01:23:43.544Z,658.0000
2019-04-25T01:23:54.420Z,663.0000
2019-04-25T01:24:04.381Z,661.0000
2019-04-25T01:24:11.259Z,665.0000
2019-04-25T01:24:24.207Z,655.0000
2019-04-25T01:24:31.259Z,652.0000
2019-04-25T01:24:43.963Z,666.0000
2019-04-25T01:24:55.165Z,664.0000
2019-04-25T01:25:03.843Z,657.0000
2019-04-25T01:25:14.261Z,661.0000
2019-04-25T01:25:21.259Z,673.0000
2019-04-25T01:25:40.971Z,675.0000
2019-04-25T01:25:44.709Z,673.0000
2019-04-25T01:25:53.825Z,678.0000
2019-04-25T01:26:04.238Z,668.0000
2019-04-25T01:26:11.244Z,670.0000
2019-04-25T01:26:24.282Z,675.0000
2019-04-25T01:26:34.252Z,667.0000
2019-04-25T01:26:44.236Z,664.0000
2019-04-25T01:26:51.686Z,664.0000
2019-04-25T01:27:01.257Z,669.0000
2019-04-25T01:27:14.243Z,660.0000
2019-04-25T01:27:21.343Z,658.0000
2019-04-25T01:27:31.250Z,659.0000
2019-04-25T01:27:41.256Z,659.0000
2019-04-25T01:27:53.669Z,645.0000
2019-04-25T01:28:01.256Z,673.0000
2019-04-25T01:28:11.248Z,659.0000
2019-04-25T01:28:21.248Z,661.0000
2019-04-25T01:28:31.241Z,669.0000
2019-04-25T01:28:41.251Z,652.0000
2019-04-25T01:28:51.876Z,669.0000
2019-04-25T01:29:03.633Z,663.0000
2019-04-25T01:29:14.249Z,667.0000
2019-04-25T01:29:24.254Z,673.0000
2019-04-25T01:29:31.238Z,660.0000
2019-04-25T01:29:41.247Z,655.0000
2019-04-25T01:29:51.939Z,645.0000
2019-04-25T01:30:02.257Z,641.0000
2019-04-25T01:30:12.216Z,645.0000
2019-04-25T01:30:23.925Z,669.0000
2019-04-25T01:30:34.240Z,662.0000
2019-04-25T01:30:44.212Z,646.0000
2019-04-25T01:30:51.926Z,639.0000
2019-04-25T01:31:03.774Z,646.0000
2019-04-25T01:31:11.270Z,651.0000
2019-04-25T01:31:24.910Z,652.0000
2019-04-25T01:31:33.575Z,634.0000
2019-04-25T01:31:43.497Z,643.0000
2019-04-25T01:31:54.398Z,645.0000
2019-04-25T01:32:03.248Z,636.0000
2019-04-25T01:32:13.966Z,641.0000
2019-04-25T01:32:24.256Z,642.0000
2019-04-25T01:32:31.246Z,639.0000
2019-04-25T01:32:41.243Z,625.0000
2019-04-25T01:32:51.272Z,642.0000
2019-04-25T01:33:04.300Z,632.0000
2019-04-25T01:33:11.277Z,639.0000
2019-04-25T01:33:24.253Z,620.0000
2019-04-25T01:33:33.413Z,630.0000
2019-04-25T01:33:43.362Z,620.0000
2019-04-25T01:33:54.622Z,622.0000
2019-04-25T01:34:02.240Z,631.0000
2019-04-25T01:34:12.247Z,618.0000
2019-04-25T01:34:22.212Z,643.0000
2019-04-25T01:34:34.167Z,623.0000
2019-04-25T01:34:41.256Z,636.0000
2019-04-25T01:34:53.865Z,633.0000
2019-04-25T01:35:04.011Z,636.0000
2019-04-25T01:35:14.250Z,637.0000
2019-04-25T01:35:24.281Z,636.0000
2019-04-25T01:35:31.249Z,629.0000
2019-04-25T01:35:44.923Z,639.0000
2019-04-25T01:35:54.455Z,627.0000
2019-04-25T01:36:04.252Z,627.0000
2019-04-25T01:36:11.248Z,626.0000
2019-04-25T01:36:21.249Z,641.0000
2019-04-25T01:36:31.243Z,629.0000
2019-04-25T01:36:41.327Z,623.0000
2019-04-25T01:36:51.246Z,633.0000
2019-04-25T01:37:01.264Z,645.0000
2019-04-25T01:37:11.247Z,625.0000
2019-04-25T01:37:21.247Z,622.0000
2019-04-25T01:37:31.266Z,631.0000
2019-04-25T01:37:43.834Z,625.0000
2019-04-25T01:37:55.177Z,632.0000
2019-04-25T01:38:03.643Z,623.0000
2019-04-25T01:38:13.903Z,625.0000
2019-04-25T01:38:24.258Z,628.0000
2019-04-25T01:38:34.245Z,635.0000
2019-04-25T01:38:41.246Z,645.0000
2019-04-25T01:38:51.247Z,639.0000
2019-04-25T01:39:01.257Z,623.0000
2019-04-25T01:39:14.390Z,638.0000
2019-04-25T01:39:21.249Z,640.0000
2019-04-25T01:39:34.269Z,636.0000
2019-04-25T01:39:41.247Z,645.0000
2019-04-25T01:39:55.318Z,627.0000
2019-04-25T01:40:04.146Z,630.0000
2019-04-25T01:40:11.244Z,626.0000
2019-04-25T01:40:21.242Z,626.0000
2019-04-25T01:40:31.240Z,648.0000
2019-04-25T01:40:41.254Z,634.0000
2019-04-25T01:40:51.265Z,637.0000
2019-04-25T01:41:01.257Z,636.0000
2019-04-25T01:41:14.637Z,641.0000
2019-04-25T01:41:24.334Z,632.0000
2019-04-25T01:41:31.242Z,643.0000
2019-04-25T01:41:41.254Z,644.0000
2019-04-25T01:41:51.333Z,634.0000
2019-04-25T01:42:05.285Z,632.0000
2019-04-25T01:42:14.257Z,634.0000
2019-04-25T01:42:21.259Z,630.0000
2019-04-25T01:42:31.236Z,651.0000
2019-04-25T01:42:44.247Z,634.0000
2019-04-25T01:42:51.553Z,640.0000
2019-04-25T01:43:04.249Z,634.0000
2019-04-25T01:43:14.249Z,637.0000
2019-04-25T01:43:21.246Z,630.0000
2019-04-25T01:43:31.242Z,632.0000
2019-04-25T01:43:41.257Z,633.0000
2019-04-25T01:43:53.105Z,622.0000
2019-04-25T01:44:04.572Z,636.0000
2019-04-25T01:44:11.249Z,640.0000
2019-04-25T01:44:21.257Z,630.0000
2019-04-25T01:44:31.252Z,625.0000
2019-04-25T01:44:44.246Z,618.0000
2019-04-25T01:44:51.604Z,614.0000
2019-04-25T01:45:01.262Z,620.0000
2019-04-25T01:45:14.258Z,624.0000
2019-04-25T01:45:21.246Z,634.0000
2019-04-25T01:45:31.249Z,630.0000
2019-04-25T01:45:44.254Z,625.0000
2019-04-25T01:45:54.910Z,624.0000
2019-04-25T01:46:03.379Z,618.0000
2019-04-25T01:46:14.762Z,622.0000
2019-04-25T01:46:22.237Z,631.0000
2019-04-25T01:46:32.249Z,607.0000
2019-04-25T01:46:41.246Z,619.0000
2019-04-25T01:46:51.854Z,612.0000
2019-04-25T01:47:04.068Z,627.0000
2019-04-25T01:47:14.245Z,625.0000
2019-04-25T01:47:21.254Z,629.0000
2019-04-25T01:47:39.250Z,626.0000
2019-04-25T01:47:43.442Z,627.0000
2019-04-25T01:47:54.089Z,619.0000
2019-04-25T01:48:01.320Z,625.0000
2019-04-25T01:48:11.240Z,616.0000
2019-04-25T01:48:24.253Z,635.0000
2019-04-25T01:48:34.248Z,614.0000
2019-04-25T01:48:41.248Z,627.0000
2019-04-25T01:48:52.199Z,625.0000
2019-04-25T01:49:04.306Z,643.0000
2019-04-25T01:49:14.223Z,643.0000
2019-04-25T01:49:24.203Z,630.0000
2019-04-25T01:49:31.252Z,634.0000
2019-04-25T01:49:41.256Z,620.0000
2019-04-25T01:49:52.262Z,637.0000
2019-04-25T01:50:03.825Z,634.0000
2019-04-25T01:50:11.241Z,626.0000
2019-04-25T01:50:21.248Z,610.0000
2019-04-25T01:50:35.269Z,611.0000
2019-04-25T01:50:43.776Z,607.0000
2019-04-25T01:50:51.246Z,623.0000
2019-04-25T01:51:01.260Z,625.0000
2019-04-25T01:51:11.246Z,639.0000
2019-04-25T01:51:24.249Z,640.0000
2019-04-25T01:51:31.251Z,654.0000
2019-04-25T01:51:41.259Z,654.0000
2019-04-25T01:51:51.246Z,634.0000
2019-04-25T01:52:01.247Z,639.0000
2019-04-25T01:52:11.260Z,627.0000
2019-04-25T01:52:24.234Z,627.0000
2019-04-25T01:52:34.228Z,609.0000
2019-04-25T01:52:41.258Z,619.0000
2019-04-25T01:52:51.264Z,625.0000
2019-04-25T01:53:04.266Z,634.0000
2019-04-25T01:53:11.246Z,631.0000
2019-04-25T01:53:21.247Z,622.0000
2019-04-25T01:53:35.516Z,618.0000
2019-04-25T01:53:44.266Z,642.0000
2019-04-25T01:53:51.249Z,646.0000
2019-04-25T01:54:04.273Z,649.0000
2019-04-25T01:54:14.252Z,643.0000
2019-04-25T01:54:21.259Z,632.0000
2019-04-25T01:54:34.278Z,627.0000
2019-04-25T01:54:41.244Z,637.0000
2019-04-25T01:54:51.244Z,640.0000
2019-04-25T01:55:05.553Z,637.0000
2019-04-25T01:55:13.751Z,629.0000
2019-04-25T01:55:23.469Z,637.0000
2019-04-25T01:55:33.641Z,648.0000
2019-04-25T01:55:53.616Z,630.0000
2019-04-25T01:56:00.584Z,630.0000
2019-04-25T01:56:05.223Z,631.0000
2019-04-25T01:56:13.593Z,632.0000
2019-04-25T01:56:24.688Z,627.0000
2019-04-25T01:56:33.279Z,618.0000
2019-04-25T01:56:44.290Z,627.0000
2019-04-25T01:56:55.015Z,632.0000
2019-04-25T01:57:04.372Z,622.0000
2019-04-25T01:57:14.383Z,628.0000
2019-04-25T01:57:21.259Z,634.0000